createdAt,value
2023-02-27T00:02:00.068Z,-0.90
2023-02-27T00:04:26.733Z,-0.90
2023-02-27T00:06:53.399Z,-0.90
2023-02-27T00:09:20.106Z,-0.80
2023-02-27T00:11:46.791Z,-0.80
2023-02-27T00:14:13.429Z,-0.90
2023-02-27T00:16:40.109Z,-0.90
2023-02-27T00:19:06.861Z,-0.90
2023-02-27T00:21:35.317Z,-0.80
2023-02-27T00:24:03.671Z,-0.90
2023-02-27T00:26:30.376Z,-0.90
2023-02-27T00:28:57.049Z,-0.90
2023-02-27T00:31:23.755Z,-0.90
2023-02-27T00:33:50.751Z,-1.00
2023-02-27T00:36:17.456Z,-1.00
2023-02-27T00:38:44.126Z,-1.10
2023-02-27T00:41:10.788Z,-1.10
2023-02-27T00:43:37.409Z,-1.10
2023-02-27T00:46:04.276Z,-1.10
2023-02-27T00:48:31.081Z,-1.10
2023-02-27T00:50:57.751Z,-1.10
2023-02-27T00:53:24.540Z,-1.00
2023-02-27T00:55:51.287Z,-1.00
2023-02-27T00:58:18.194Z,-1.00
2023-02-27T01:00:45.176Z,-1.10
2023-02-27T01:03:12.065Z,-1.10
2023-02-27T01:05:38.851Z,-1.10
2023-02-27T01:08:05.569Z,-1.10
2023-02-27T01:10:32.364Z,-1.20
2023-02-27T01:12:59.131Z,-1.10
2023-02-27T01:15:26.460Z,-1.20
2023-02-27T01:17:53.167Z,-1.30
2023-02-27T01:20:21.447Z,-1.20
2023-02-27T01:22:48.182Z,-1.20
2023-02-27T01:25:15.699Z,-1.20
2023-02-27T01:27:42.942Z,-1.30
2023-02-27T01:30:11.536Z,-1.30
2023-02-27T01:32:38.494Z,-1.30
2023-02-27T01:35:05.812Z,-1.30
2023-02-27T01:37:32.470Z,-1.20
2023-02-27T01:39:59.291Z,-1.30
2023-02-27T01:42:28.306Z,-1.30
2023-02-27T01:45:12.049Z,-1.30
2023-02-27T01:47:41.981Z,-1.30
2023-02-27T01:50:10.351Z,-1.20
2023-02-27T01:52:38.444Z,-1.30
2023-02-27T01:55:08.563Z,-1.30
2023-02-27T01:57:36.541Z,-1.40
2023-02-27T02:00:04.654Z,-1.30
2023-02-27T02:02:42.568Z,-1.30
2023-02-27T02:05:10.296Z,-1.20
2023-02-27T02:07:39.907Z,-1.30
2023-02-27T02:10:07.891Z,-1.30
2023-02-27T02:12:37.070Z,-1.40
2023-02-27T02:15:05.194Z,-1.30
2023-02-27T02:17:53.593Z,-1.40
2023-02-27T02:21:03.331Z,-1.40
2023-02-27T02:24:07.400Z,-1.40
2023-02-27T02:26:46.303Z,-1.40
2023-02-27T02:29:34.594Z,-1.40
2023-02-27T02:32:13.336Z,-1.50
2023-02-27T02:35:08.157Z,-1.60
2023-02-27T02:38:07.110Z,-1.60
2023-02-27T02:40:58.395Z,-1.60
2023-02-27T02:43:30.827Z,-1.70
2023-02-27T02:46:10.331Z,-1.70
2023-02-27T02:49:01.121Z,-1.60
2023-02-27T02:51:50.547Z,-1.60
2023-02-27T02:54:32.029Z,-1.60
2023-02-27T02:57:23.612Z,-1.70
2023-02-27T03:00:06.208Z,-1.70
2023-02-27T03:02:47.313Z,-1.70
2023-02-27T03:05:22.210Z,-1.70
2023-02-27T03:08:00.330Z,-1.70
2023-02-27T03:10:32.493Z,-1.80
2023-02-27T03:13:10.673Z,-1.80
2023-02-27T03:15:44.811Z,-1.80
2023-02-27T03:18:24.629Z,-1.90
2023-02-27T03:21:02.390Z,-1.80
2023-02-27T03:23:47.093Z,-1.80
2023-02-27T03:26:19.569Z,-1.80
2023-02-27T03:29:06.019Z,-1.80
2023-02-27T03:31:49.223Z,-1.90
2023-02-27T03:34:36.225Z,-1.90
2023-02-27T03:37:17.382Z,-1.90
2023-02-27T03:39:56.706Z,-1.90
2023-02-27T03:42:33.939Z,-1.90
2023-02-27T03:45:28.699Z,-1.90
2023-02-27T03:47:55.593Z,-1.90
2023-02-27T03:50:22.640Z,-1.90
2023-02-27T03:52:49.974Z,-1.90
2023-02-27T03:55:30.403Z,-1.90
2023-02-27T03:57:57.333Z,-1.80
2023-02-27T04:00:26.035Z,-1.70
2023-02-27T04:02:55.917Z,-1.80
2023-02-27T04:05:25.564Z,-1.90
2023-02-27T04:08:25.006Z,-1.90
2023-02-27T04:11:18.095Z,-2.00
2023-02-27T04:14:23.848Z,-1.90
2023-02-27T04:17:12.005Z,-1.90
2023-02-27T04:20:05.661Z,-2.00
2023-02-27T04:22:49.001Z,-2.00
2023-02-27T04:25:36.333Z,-2.00
2023-02-27T04:28:11.641Z,-1.80
2023-02-27T04:30:38.299Z,-2.00
2023-02-27T04:33:28.949Z,-2.00
2023-02-27T04:36:07.129Z,-2.00
2023-02-27T04:39:02.751Z,-2.10
2023-02-27T04:41:49.576Z,-2.10
2023-02-27T04:44:18.909Z,-2.10
2023-02-27T04:46:47.650Z,-2.10
2023-02-27T04:49:48.832Z,-2.10
2023-02-27T04:52:40.817Z,-2.10
2023-02-27T04:55:31.287Z,-2.20
2023-02-27T04:58:02.527Z,-2.20
2023-02-27T05:00:31.743Z,-2.20
2023-02-27T05:03:17.081Z,-2.20
2023-02-27T05:05:47.180Z,-2.20
2023-02-27T05:08:44.556Z,-2.10
2023-02-27T05:11:34.772Z,-2.10
2023-02-27T05:14:14.806Z,-2.20
2023-02-27T05:17:00.510Z,-2.20
2023-02-27T05:19:27.277Z,-2.20
2023-02-27T05:22:34.682Z,-2.20
2023-02-27T05:25:24.275Z,-2.20
2023-02-27T05:28:25.569Z,-2.20
2023-02-27T05:31:04.627Z,-2.30
2023-02-27T05:33:37.276Z,-2.20
2023-02-27T05:36:04.126Z,-2.30
2023-02-27T05:38:59.798Z,-2.20
2023-02-27T05:41:31.055Z,-2.20
2023-02-27T05:44:05.753Z,-2.20
2023-02-27T05:46:36.129Z,-2.30
2023-02-27T05:49:16.830Z,-2.30
2023-02-27T05:51:46.405Z,-2.30
2023-02-27T05:54:37.492Z,-2.30
2023-02-27T05:57:10.259Z,-2.30
2023-02-27T05:59:47.295Z,-2.30
2023-02-27T06:02:14.329Z,-2.40
2023-02-27T06:04:41.535Z,-2.20
2023-02-27T06:07:08.706Z,-2.20
2023-02-27T06:09:35.867Z,-2.20
2023-02-27T06:12:02.635Z,-2.30
2023-02-27T06:14:29.299Z,-2.40
2023-02-27T06:16:56.002Z,-2.30
2023-02-27T06:19:22.712Z,-2.30
2023-02-27T06:21:49.899Z,-2.30
2023-02-27T06:24:16.534Z,-2.30
2023-02-27T06:26:43.212Z,-2.30
2023-02-27T06:29:09.843Z,-2.30
2023-02-27T06:31:36.502Z,-2.20
2023-02-27T06:34:03.170Z,-2.20
2023-02-27T06:36:30.169Z,-2.20
2023-02-27T06:38:57.945Z,-2.20
2023-02-27T06:41:24.749Z,-2.20
2023-02-27T06:43:51.524Z,-2.30
2023-02-27T06:46:18.371Z,-2.30
2023-02-27T06:48:45.617Z,-2.30
2023-02-27T06:51:12.344Z,-2.30
2023-02-27T06:53:38.989Z,-2.20
2023-02-27T06:56:06.087Z,-2.20
2023-02-27T06:58:32.753Z,-2.20
2023-02-27T07:01:00.936Z,-2.20
2023-02-27T07:03:27.687Z,-2.20
2023-02-27T07:05:54.338Z,-2.20
2023-02-27T07:08:21.006Z,-2.10
2023-02-27T07:10:48.984Z,-2.10
2023-02-27T07:13:19.399Z,-2.10
2023-02-27T07:15:46.681Z,-2.00
2023-02-27T07:18:13.380Z,-1.90
2023-02-27T07:20:40.233Z,-1.80
2023-02-27T07:23:07.075Z,-1.70
2023-02-27T07:25:33.975Z,-1.70
2023-02-27T07:28:00.624Z,-1.70
2023-02-27T07:30:27.306Z,-1.60
2023-02-27T07:32:54.005Z,-1.50
2023-02-27T07:35:20.655Z,-1.60
2023-02-27T07:37:47.674Z,-1.50
2023-02-27T07:40:14.912Z,-1.50
2023-02-27T07:42:41.601Z,-1.40
2023-02-27T07:45:09.651Z,-1.40
2023-02-27T07:47:36.484Z,-1.40
2023-02-27T07:50:04.705Z,-1.30
2023-02-27T07:52:32.442Z,-1.30
2023-02-27T07:54:59.083Z,-1.20
2023-02-27T07:57:25.750Z,-1.20
2023-02-27T07:59:52.410Z,-1.10
2023-02-27T08:02:19.161Z,-1.10
2023-02-27T08:04:45.929Z,-1.10
2023-02-27T08:07:12.624Z,-1.00
2023-02-27T08:09:39.331Z,-0.90
2023-02-27T08:12:06.239Z,-0.90
2023-02-27T08:14:32.955Z,-0.80
2023-02-27T08:17:00.592Z,-0.70
2023-02-27T08:19:27.390Z,-0.70
2023-02-27T08:21:54.153Z,-0.80
2023-02-27T08:24:20.901Z,-0.60
2023-02-27T08:26:47.792Z,-0.60
2023-02-27T08:29:16.876Z,-0.50
2023-02-27T08:31:45.204Z,-0.50
2023-02-27T08:34:12.309Z,-0.50
2023-02-27T08:36:39.768Z,-0.40
2023-02-27T08:39:07.569Z,-0.30
2023-02-27T08:41:34.986Z,-0.20
2023-02-27T08:44:01.752Z,-0.30
2023-02-27T08:46:28.890Z,-0.30
2023-02-27T08:48:55.808Z,-0.20
2023-02-27T08:51:22.508Z,0.00
2023-02-27T08:53:49.193Z,-0.20
2023-02-27T08:56:15.919Z,-0.10
2023-02-27T08:58:42.596Z,0.10
2023-02-27T09:01:09.311Z,0.20
2023-02-27T09:03:37.267Z,0.20
2023-02-27T09:06:05.164Z,0.00
2023-02-27T09:08:31.868Z,0.00
2023-02-27T09:10:58.560Z,0.00
2023-02-27T09:13:26.631Z,0.10
2023-02-27T09:15:53.871Z,0.10
2023-02-27T09:18:20.664Z,0.40
2023-02-27T09:20:50.991Z,0.20
2023-02-27T09:23:18.159Z,0.40
2023-02-27T09:25:47.214Z,0.50
2023-02-27T09:28:13.939Z,0.60
2023-02-27T09:30:40.616Z,0.70
2023-02-27T09:33:07.617Z,0.80
2023-02-27T09:35:34.289Z,0.50
2023-02-27T09:38:00.941Z,0.60
2023-02-27T09:40:30.638Z,0.50
2023-02-27T09:43:02.875Z,0.60
2023-02-27T09:45:31.774Z,0.70
2023-02-27T09:48:08.192Z,0.90
2023-02-27T09:50:44.562Z,0.90
2023-02-27T09:53:40.069Z,1.00
2023-02-27T09:56:30.991Z,1.00
2023-02-27T09:59:10.817Z,0.80
2023-02-27T10:01:45.717Z,0.90
2023-02-27T10:04:35.002Z,1.00
2023-02-27T10:07:18.669Z,1.10
2023-02-27T10:09:55.583Z,0.90
2023-02-27T10:12:36.998Z,0.80
2023-02-27T10:15:20.305Z,0.80
2023-02-27T10:17:52.042Z,0.90
2023-02-27T10:20:54.672Z,1.00
2023-02-27T10:23:35.765Z,1.20
2023-02-27T10:26:03.613Z,1.10
2023-02-27T10:28:31.927Z,1.30
2023-02-27T10:31:02.015Z,1.40
2023-02-27T10:33:38.290Z,1.10
2023-02-27T10:36:17.886Z,1.30
2023-02-27T10:39:00.729Z,1.40
2023-02-27T10:41:29.124Z,1.50
2023-02-27T10:43:58.659Z,1.40
2023-02-27T10:46:28.805Z,1.40
2023-02-27T10:48:58.459Z,1.50
2023-02-27T10:51:31.529Z,1.60
2023-02-27T10:54:21.047Z,1.60
2023-02-27T10:56:56.649Z,2.10
2023-02-27T10:59:31.594Z,2.10
2023-02-27T11:02:05.390Z,2.20
2023-02-27T11:04:38.612Z,2.00
2023-02-27T11:07:09.013Z,1.80
2023-02-27T11:09:37.096Z,1.80
2023-02-27T11:12:22.471Z,1.60
2023-02-27T11:14:55.462Z,1.60
2023-02-27T11:17:28.745Z,1.50
2023-02-27T11:19:57.615Z,1.50
2023-02-27T11:22:27.550Z,1.70
2023-02-27T11:25:17.046Z,2.00
2023-02-27T11:27:45.950Z,2.00
2023-02-27T11:30:28.666Z,2.20
2023-02-27T11:32:58.635Z,2.30
2023-02-27T11:35:32.030Z,2.10
2023-02-27T11:38:18.607Z,2.30
2023-02-27T11:40:51.901Z,2.30
2023-02-27T11:43:31.613Z,2.60
2023-02-27T11:46:12.746Z,2.40
2023-02-27T11:48:51.749Z,2.50
2023-02-27T11:51:37.769Z,2.60
2023-02-27T11:54:14.067Z,2.60
2023-02-27T11:56:56.271Z,2.70
2023-02-27T11:59:41.557Z,2.70
2023-02-27T12:02:20.737Z,2.60
2023-02-27T12:04:53.351Z,2.50
2023-02-27T12:07:35.124Z,2.50
2023-02-27T12:10:08.895Z,2.60
2023-02-27T12:12:45.585Z,2.80
2023-02-27T12:15:30.969Z,2.90
2023-02-27T12:18:19.811Z,3.10
2023-02-27T12:20:57.573Z,3.30
2023-02-27T12:23:33.803Z,3.30
2023-02-27T12:26:20.739Z,3.40
2023-02-27T12:29:14.535Z,3.50
2023-02-27T12:31:56.178Z,3.70
2023-02-27T12:34:29.087Z,3.60
2023-02-27T12:37:01.392Z,3.70
2023-02-27T12:39:29.008Z,3.50
2023-02-27T12:42:25.208Z,3.40
2023-02-27T12:45:22.446Z,3.40
2023-02-27T12:47:49.149Z,3.50
2023-02-27T12:50:19.408Z,3.50
2023-02-27T12:52:49.176Z,3.60
2023-02-27T12:55:21.468Z,3.50
2023-02-27T12:57:59.881Z,3.40
2023-02-27T13:00:30.880Z,3.40
2023-02-27T13:03:19.214Z,3.10
2023-02-27T13:06:13.380Z,3.10
2023-02-27T13:08:51.192Z,3.10
2023-02-27T13:11:26.928Z,3.10
2023-02-27T13:14:01.349Z,3.10
2023-02-27T13:16:40.721Z,3.30
2023-02-27T13:19:16.288Z,3.40
2023-02-27T13:21:49.693Z,3.20
2023-02-27T13:24:26.357Z,3.40
2023-02-27T13:27:11.012Z,3.00
2023-02-27T13:29:47.567Z,2.90
2023-02-27T13:32:41.348Z,2.80
2023-02-27T13:35:28.590Z,2.90
2023-02-27T13:38:01.506Z,3.10
2023-02-27T13:40:28.283Z,2.90
2023-02-27T13:43:01.958Z,3.10
2023-02-27T13:45:47.807Z,2.90
2023-02-27T13:48:33.411Z,2.80
2023-02-27T13:51:01.344Z,2.80
2023-02-27T13:53:29.135Z,2.90
2023-02-27T13:56:17.367Z,3.00
2023-02-27T13:58:44.497Z,3.00
2023-02-27T14:01:22.063Z,3.30
2023-02-27T14:04:06.219Z,3.50
2023-02-27T14:06:33.254Z,3.40
2023-02-27T14:09:14.155Z,3.20
2023-02-27T14:11:59.825Z,3.20
2023-02-27T14:14:44.250Z,3.30
2023-02-27T14:17:30.859Z,3.10
2023-02-27T14:19:59.057Z,3.00
2023-02-27T14:22:35.917Z,3.00
2023-02-27T14:25:15.822Z,3.30
2023-02-27T14:27:50.686Z,3.20
2023-02-27T14:30:31.221Z,3.30
2023-02-27T14:33:07.776Z,3.30
2023-02-27T14:35:35.677Z,3.20
2023-02-27T14:38:09.658Z,3.00
2023-02-27T14:40:47.124Z,2.60
2023-02-27T14:43:26.003Z,2.70
2023-02-27T14:45:54.311Z,2.70
2023-02-27T14:48:27.922Z,2.80
2023-02-27T14:50:57.875Z,2.90
2023-02-27T14:53:27.156Z,3.00
2023-02-27T14:55:58.426Z,3.00
2023-02-27T14:58:26.082Z,2.90
2023-02-27T15:00:56.105Z,3.10
2023-02-27T15:03:26.076Z,3.20
2023-02-27T15:05:57.551Z,3.10
2023-02-27T15:08:28.050Z,3.20
2023-02-27T15:10:57.138Z,3.20
2023-02-27T15:13:34.182Z,3.00
2023-02-27T15:16:21.305Z,3.10
2023-02-27T15:18:53.878Z,3.30
2023-02-27T15:21:22.968Z,3.30
2023-02-27T15:24:01.650Z,3.30
2023-02-27T15:26:31.238Z,3.20
2023-02-27T15:28:59.818Z,3.40
2023-02-27T15:31:30.894Z,3.10
2023-02-27T15:34:00.246Z,3.10
2023-02-27T15:36:33.149Z,3.10
2023-02-27T15:39:07.605Z,3.00
2023-02-27T15:41:35.213Z,2.90
2023-02-27T15:44:03.214Z,2.90
2023-02-27T15:46:30.742Z,2.80
2023-02-27T15:48:57.897Z,2.60
2023-02-27T15:51:26.841Z,2.80
2023-02-27T15:53:55.491Z,2.80
2023-02-27T15:56:28.227Z,2.80
2023-02-27T15:59:00.206Z,2.70
2023-02-27T16:01:31.138Z,2.60
2023-02-27T16:04:06.091Z,2.70
2023-02-27T16:06:36.262Z,2.70
2023-02-27T16:09:18.951Z,2.60
2023-02-27T16:11:45.713Z,2.60
2023-02-27T16:14:44.727Z,2.60
2023-02-27T16:17:29.268Z,2.50
2023-02-27T16:19:57.793Z,2.40
2023-02-27T16:22:25.174Z,2.50
2023-02-27T16:24:52.547Z,2.50
2023-02-27T16:27:24.439Z,2.50
2023-02-27T16:29:53.623Z,2.40
2023-02-27T16:32:34.493Z,2.40
2023-02-27T16:35:16.773Z,2.40
2023-02-27T16:37:45.853Z,2.40
2023-02-27T16:40:22.352Z,2.40
2023-02-27T16:42:50.252Z,2.40
2023-02-27T16:45:22.502Z,2.40
2023-02-27T16:47:51.082Z,2.40
2023-02-27T16:50:22.112Z,2.40
2023-02-27T16:52:48.897Z,2.30
2023-02-27T16:55:16.038Z,2.30
2023-02-27T16:57:42.757Z,2.20
2023-02-27T17:00:18.690Z,2.20
2023-02-27T17:02:46.819Z,2.10
2023-02-27T17:05:15.089Z,2.10
2023-02-27T17:07:42.710Z,2.10
2023-02-27T17:10:16.601Z,2.10
2023-02-27T17:12:44.072Z,2.00
2023-02-27T17:15:11.149Z,1.90
2023-02-27T17:17:37.809Z,1.80
2023-02-27T17:20:07.136Z,1.80
2023-02-27T17:22:37.641Z,1.80
2023-02-27T17:25:04.608Z,1.70
2023-02-27T17:27:31.323Z,1.60
2023-02-27T17:29:58.172Z,1.70
2023-02-27T17:32:25.051Z,1.80
2023-02-27T17:34:55.788Z,1.70
2023-02-27T17:37:23.312Z,1.80
2023-02-27T17:39:50.004Z,1.70
2023-02-27T17:42:18.547Z,1.70
2023-02-27T17:44:48.356Z,1.60
2023-02-27T17:47:15.288Z,1.60
2023-02-27T17:49:42.384Z,1.60
2023-02-27T17:52:09.404Z,1.50
2023-02-27T17:54:36.614Z,1.50
2023-02-27T17:57:04.783Z,1.50
2023-02-27T17:59:31.658Z,1.40
2023-02-27T18:01:58.744Z,1.50
2023-02-27T18:04:25.452Z,1.50
2023-02-27T18:06:52.135Z,1.50
2023-02-27T18:09:18.864Z,1.50
2023-02-27T18:11:45.593Z,1.50
2023-02-27T18:14:12.292Z,1.40
2023-02-27T18:16:39.058Z,1.30
2023-02-27T18:19:06.346Z,1.40
2023-02-27T18:21:34.165Z,1.40
2023-02-27T18:24:01.263Z,1.40
2023-02-27T18:26:31.373Z,1.40
2023-02-27T18:29:07.403Z,1.40
2023-02-27T18:31:39.660Z,1.30
2023-02-27T18:34:07.672Z,1.40
2023-02-27T18:36:35.601Z,1.40
2023-02-27T18:39:04.846Z,1.40
2023-02-27T18:41:31.898Z,1.40
2023-02-27T18:43:58.620Z,1.40
2023-02-27T18:46:25.555Z,1.30
2023-02-27T18:48:52.340Z,1.50
2023-02-27T18:51:19.134Z,1.60
2023-02-27T18:53:49.201Z,1.50
2023-02-27T18:56:19.343Z,1.50
2023-02-27T18:58:46.572Z,1.50
2023-02-27T19:01:22.597Z,1.70
2023-02-27T19:03:50.339Z,1.70
2023-02-27T19:06:17.198Z,1.70
2023-02-27T19:08:43.872Z,1.60
2023-02-27T19:11:10.564Z,1.50
2023-02-27T19:13:37.205Z,1.50
2023-02-27T19:16:07.242Z,1.50
2023-02-27T19:18:33.922Z,1.60
2023-02-27T19:21:05.047Z,1.50
2023-02-27T19:23:31.903Z,1.50
2023-02-27T19:26:01.360Z,1.50
2023-02-27T19:28:28.211Z,1.40
2023-02-27T19:30:54.924Z,1.40
2023-02-27T19:33:21.652Z,1.50
2023-02-27T19:35:48.470Z,1.30
2023-02-27T19:38:15.227Z,1.30
2023-02-27T19:40:42.036Z,1.30
2023-02-27T19:43:08.741Z,1.30
2023-02-27T19:45:39.670Z,1.20
2023-02-27T19:48:06.776Z,1.30
2023-02-27T19:50:34.393Z,1.20
2023-02-27T19:53:01.690Z,1.20
2023-02-27T19:55:28.363Z,1.20
2023-02-27T19:57:55.347Z,1.20
2023-02-27T20:00:22.386Z,1.10
2023-02-27T20:02:49.196Z,1.20
2023-02-27T20:05:15.946Z,1.20
2023-02-27T20:07:42.683Z,1.10
2023-02-27T20:10:10.488Z,1.20
2023-02-27T20:12:37.180Z,1.20
2023-02-27T20:15:08.680Z,1.20
2023-02-27T20:17:35.570Z,1.10
2023-02-27T20:20:04.798Z,1.10
2023-02-27T20:22:33.470Z,1.10
2023-02-27T20:25:00.621Z,1.10
2023-02-27T20:27:27.903Z,1.00
2023-02-27T20:29:56.338Z,1.00
2023-02-27T20:32:24.533Z,1.00
2023-02-27T20:34:51.399Z,1.00
2023-02-27T20:37:18.611Z,0.90
2023-02-27T20:39:45.350Z,0.80
2023-02-27T20:42:14.013Z,0.80
2023-02-27T20:44:42.184Z,0.80
2023-02-27T20:47:09.051Z,0.70
2023-02-27T20:49:36.784Z,0.80
2023-02-27T20:52:03.822Z,0.80
2023-02-27T20:54:30.628Z,0.80
2023-02-27T20:56:57.483Z,0.90
2023-02-27T20:59:25.447Z,0.80
2023-02-27T21:01:53.234Z,0.80
2023-02-27T21:04:22.816Z,0.80
2023-02-27T21:06:50.351Z,0.80
2023-02-27T21:09:18.668Z,0.80
2023-02-27T21:11:45.372Z,0.70
2023-02-27T21:14:12.486Z,0.70
2023-02-27T21:16:40.541Z,0.80
2023-02-27T21:19:07.894Z,0.80
2023-02-27T21:21:35.369Z,0.70
2023-02-27T21:24:02.174Z,0.70
2023-02-27T21:26:34.862Z,0.60
2023-02-27T21:29:08.848Z,0.60
2023-02-27T21:31:37.141Z,0.70
2023-02-27T21:34:07.254Z,0.50
2023-02-27T21:36:42.757Z,0.60
2023-02-27T21:39:13.569Z,0.50
2023-02-27T21:41:40.962Z,0.60
2023-02-27T21:44:09.180Z,0.60
2023-02-27T21:46:35.975Z,0.40
2023-02-27T21:49:03.826Z,0.40
2023-02-27T21:51:40.105Z,0.30
2023-02-27T21:54:09.239Z,0.30
2023-02-27T21:56:36.008Z,0.20
2023-02-27T21:59:03.231Z,0.20
2023-02-27T22:01:30.641Z,0.20
2023-02-27T22:03:57.904Z,0.20
2023-02-27T22:06:26.930Z,0.10
2023-02-27T22:08:57.980Z,0.10
2023-02-27T22:11:26.665Z,0.20
2023-02-27T22:13:53.990Z,0.20
2023-02-27T22:16:21.508Z,0.30
2023-02-27T22:18:48.975Z,0.20
2023-02-27T22:21:22.530Z,0.30
2023-02-27T22:23:49.488Z,0.30
2023-02-27T22:26:20.757Z,0.30
2023-02-27T22:28:47.455Z,0.30
2023-02-27T22:31:17.098Z,0.10
2023-02-27T22:33:45.810Z,0.10
2023-02-27T22:36:14.750Z,0.10
2023-02-27T22:38:42.668Z,0.00
2023-02-27T22:41:14.671Z,0.00
2023-02-27T22:43:44.591Z,0.10
2023-02-27T22:46:13.718Z,0.10
2023-02-27T22:48:40.582Z,0.10
2023-02-27T22:51:12.544Z,0.00
2023-02-27T22:53:40.164Z,0.10
2023-02-27T22:56:12.799Z,0.10
2023-02-27T22:58:40.647Z,0.00
2023-02-27T23:01:29.307Z,0.00
2023-02-27T23:03:58.759Z,-0.10
2023-02-27T23:06:34.316Z,-0.10
2023-02-27T23:09:01.696Z,-0.20
2023-02-27T23:11:28.729Z,-0.10
2023-02-27T23:13:55.593Z,0.00
2023-02-27T23:16:22.620Z,-0.10
2023-02-27T23:18:54.452Z,-0.10
2023-02-27T23:21:25.178Z,-0.10
2023-02-27T23:23:53.807Z,-0.10
2023-02-27T23:26:20.677Z,0.00
2023-02-27T23:28:47.384Z,-0.10
2023-02-27T23:31:14.104Z,-0.10
2023-02-27T23:33:40.905Z,-0.10
2023-02-27T23:36:07.848Z,-0.10
2023-02-27T23:38:34.530Z,-0.20
2023-02-27T23:41:08.552Z,-0.30
2023-02-27T23:43:35.913Z,-0.50
2023-02-27T23:46:10.284Z,-0.50
2023-02-27T23:48:37.357Z,-0.50
2023-02-27T23:51:06.164Z,-0.60
2023-02-27T23:53:34.245Z,-0.50
2023-02-27T23:56:01.531Z,-0.60
2023-02-27T23:58:28.285Z,-0.70
